< < Back
Terminal Aerodrome Forecast


Current Version              Previous Versions:   1  2  3  4  5  6  7  8  9  

Terminal Aerodrome Forecast

973
FTAK31 PAJN 222300
TAFAHN
TAF
PAHN 222330Z 2300/2324 31007KT P6SM -SHRA OVC013
     FM230600 12005KT P6SM -SHRA OVC020
     FM231000 11006KT 5SM BR VCSH BKN015 OVC035
     FM231500 12006KT P6SM VCSH SCT003 BKN012 OVC020
      AMD LTD TO CLD VIS AND WIND=



Latest METAR

119
SAUS70 KWBC 230000 RRA
MTRAHN
METAR KAHN 222351Z 08005KT 10SM FEW047 SCT070 09/M03 A3030 RMK AO2
SLP267 T00941028 10156 20094 58002 $


USA.gov is the U.S. government's official web portal to all federal, state and local government web resources and services.